createdAt,value
2018-09-25T00:01:07.412Z,5.19
2018-09-25T00:03:41.371Z,5.23
2018-09-25T00:06:15.163Z,5.26
2018-09-25T00:08:49.004Z,5.21
2018-09-25T00:11:22.877Z,5.19
2018-09-25T00:13:56.729Z,5.14
2018-09-25T00:16:30.614Z,5.11
2018-09-25T00:19:04.572Z,5.05
2018-09-25T00:21:38.503Z,5.10
2018-09-25T00:24:12.520Z,5.05
2018-09-25T00:26:46.306Z,5.03
2018-09-25T00:29:20.149Z,4.97
2018-09-25T00:31:53.942Z,4.93
2018-09-25T00:34:27.784Z,4.89
2018-09-25T00:37:01.571Z,4.87
2018-09-25T00:39:35.292Z,4.85
2018-09-25T00:42:09.347Z,4.80
2018-09-25T00:44:43.374Z,4.77
2018-09-25T00:47:17.246Z,4.73
2018-09-25T00:49:51.145Z,4.67
2018-09-25T00:52:25.010Z,4.63
2018-09-25T00:54:58.976Z,4.58
2018-09-25T00:57:32.876Z,4.61
2018-09-25T01:00:18.858Z,4.64
2018-09-25T01:02:52.930Z,4.69
2018-09-25T01:05:26.788Z,4.74
2018-09-25T01:08:00.833Z,4.78
2018-09-25T01:10:34.819Z,4.81
2018-09-25T01:13:08.891Z,4.78
2018-09-25T01:15:42.885Z,4.74
2018-09-25T01:18:16.852Z,4.70
2018-09-25T01:20:50.719Z,4.66
2018-09-25T01:23:24.657Z,4.58
2018-09-25T01:25:58.461Z,4.49
2018-09-25T01:28:32.305Z,4.42
2018-09-25T01:31:06.175Z,4.40
2018-09-25T01:33:40.139Z,4.30
2018-09-25T01:36:14.140Z,4.31
2018-09-25T01:38:47.964Z,4.26
2018-09-25T01:41:21.983Z,4.22
2018-09-25T01:43:55.974Z,4.29
2018-09-25T01:46:29.933Z,4.32
2018-09-25T01:49:03.810Z,4.29
2018-09-25T01:51:37.679Z,4.29
2018-09-25T01:54:11.664Z,4.33
2018-09-25T01:56:45.382Z,4.40
2018-09-25T01:59:19.225Z,4.43
2018-09-25T02:01:54.292Z,4.51
2018-09-25T02:04:28.172Z,4.52
2018-09-25T02:07:01.984Z,4.48
2018-09-25T02:09:35.953Z,4.46
2018-09-25T02:12:09.970Z,4.39
2018-09-25T02:14:43.812Z,4.29
2018-09-25T02:17:17.584Z,4.23
2018-09-25T02:19:51.442Z,4.24
2018-09-25T02:22:25.232Z,4.30
2018-09-25T02:24:59.206Z,4.33
2018-09-25T02:27:32.971Z,4.30
2018-09-25T02:30:06.915Z,4.29
2018-09-25T02:32:40.855Z,4.24
2018-09-25T02:35:14.875Z,4.17
2018-09-25T02:37:48.747Z,4.16
2018-09-25T02:40:22.533Z,4.10
2018-09-25T02:42:56.300Z,4.04
2018-09-25T02:45:30.282Z,4.00
2018-09-25T02:48:04.084Z,4.02
2018-09-25T02:50:37.956Z,4.01
2018-09-25T02:53:11.864Z,4.04
2018-09-25T02:55:45.685Z,4.01
2018-09-25T02:58:19.624Z,3.98
2018-09-25T03:00:53.675Z,3.92
2018-09-25T03:03:27.503Z,3.84
2018-09-25T03:06:01.381Z,3.79
2018-09-25T03:08:35.327Z,3.82
2018-09-25T03:11:09.085Z,3.75
2018-09-25T03:13:43.063Z,3.60
2018-09-25T03:16:16.921Z,3.48
2018-09-25T03:18:50.697Z,3.40
2018-09-25T03:21:24.732Z,3.32
2018-09-25T03:23:58.913Z,3.31
2018-09-25T03:26:32.684Z,3.27
2018-09-25T03:29:06.587Z,3.23
2018-09-25T03:31:40.635Z,3.13
2018-09-25T03:34:14.515Z,2.94
2018-09-25T03:36:48.217Z,2.73
2018-09-25T03:39:22.004Z,2.52
2018-09-25T03:41:55.717Z,2.36
2018-09-25T03:44:29.745Z,2.22
2018-09-25T03:47:03.759Z,2.01
2018-09-25T03:49:37.756Z,1.90
2018-09-25T03:52:11.590Z,1.88
2018-09-25T03:54:45.409Z,1.90
2018-09-25T03:57:19.448Z,1.90
2018-09-25T03:59:53.189Z,1.88
2018-09-25T04:02:26.982Z,1.87
2018-09-25T04:05:00.774Z,1.91
2018-09-25T04:07:34.794Z,1.95
2018-09-25T04:10:08.839Z,1.93
2018-09-25T04:12:42.716Z,1.95
2018-09-25T04:15:16.593Z,1.90
2018-09-25T04:17:50.627Z,1.89
2018-09-25T04:20:24.313Z,1.86
2018-09-25T04:22:58.104Z,1.85
2018-09-25T04:25:31.922Z,1.82
2018-09-25T04:28:05.880Z,1.69
2018-09-25T04:30:39.775Z,1.62
2018-09-25T04:33:13.684Z,1.53
2018-09-25T04:35:47.486Z,1.50
2018-09-25T04:38:21.421Z,1.46
2018-09-25T04:40:55.373Z,1.49
2018-09-25T04:43:29.263Z,1.50
2018-09-25T04:46:03.209Z,1.44
2018-09-25T04:48:37.068Z,1.37
2018-09-25T04:51:11.068Z,1.37
2018-09-25T04:53:44.954Z,1.38
2018-09-25T04:56:18.730Z,1.43
2018-09-25T04:58:52.689Z,1.47
2018-09-25T05:01:26.648Z,1.51
2018-09-25T05:04:00.673Z,1.58
2018-09-25T05:06:34.545Z,1.65
2018-09-25T05:09:08.308Z,1.71
2018-09-25T05:11:42.276Z,1.74
2018-09-25T05:14:16.293Z,1.76
2018-09-25T05:16:50.232Z,1.79
2018-09-25T05:19:24.202Z,1.85
2018-09-25T05:21:58.094Z,1.88
2018-09-25T05:24:31.942Z,1.87
2018-09-25T05:27:05.738Z,1.83
2018-09-25T05:29:39.570Z,1.81
2018-09-25T05:32:13.309Z,1.85
2018-09-25T05:34:47.113Z,1.88
2018-09-25T05:37:21.002Z,1.90
2018-09-25T05:39:55.064Z,2.20
2018-09-25T05:42:28.881Z,3.25
2018-09-25T05:45:02.903Z,4.45
2018-09-25T05:47:36.893Z,5.31
2018-09-25T05:50:10.935Z,5.36
2018-09-25T05:52:44.759Z,5.07
2018-09-25T05:55:18.689Z,5.18
2018-09-25T05:57:52.593Z,5.97
2018-09-25T06:00:26.453Z,7.21
2018-09-25T06:03:00.325Z,7.90
2018-09-25T06:05:34.168Z,7.94
2018-09-25T06:08:07.959Z,7.44
2018-09-25T06:10:41.870Z,6.60
2018-09-25T06:13:15.717Z,5.98
2018-09-25T06:15:49.709Z,5.63
2018-09-25T06:18:23.600Z,5.37
2018-09-25T06:20:57.497Z,5.26
2018-09-25T06:23:31.424Z,5.22
2018-09-25T06:26:05.183Z,5.24
2018-09-25T06:28:39.180Z,5.32
2018-09-25T06:31:13.556Z,5.43
2018-09-25T06:33:47.524Z,5.52
2018-09-25T06:36:21.204Z,5.69
2018-09-25T06:38:55.040Z,5.82
2018-09-25T06:41:28.909Z,5.94
2018-09-25T06:44:02.864Z,6.04
2018-09-25T06:46:36.725Z,6.18
2018-09-25T06:49:10.714Z,6.28
2018-09-25T06:56:01.007Z,6.59
2018-09-25T06:58:34.958Z,6.75
2018-09-25T07:01:08.900Z,6.85
2018-09-25T07:03:42.892Z,6.96
2018-09-25T07:06:16.629Z,7.07
2018-09-25T07:08:50.602Z,7.23
2018-09-25T07:11:24.573Z,7.35
2018-09-25T07:13:58.379Z,7.52
2018-09-25T07:16:32.238Z,7.65
2018-09-25T07:19:06.197Z,7.76
2018-09-25T07:21:40.066Z,7.84
2018-09-25T07:24:13.828Z,7.93
2018-09-25T07:26:47.697Z,8.05
2018-09-25T07:29:21.545Z,8.14
2018-09-25T07:31:55.632Z,8.27
2018-09-25T07:34:29.353Z,8.38
2018-09-25T07:37:03.117Z,8.51
2018-09-25T07:39:37.002Z,8.59
2018-09-25T07:42:10.983Z,8.67
2018-09-25T07:44:44.826Z,8.83
2018-09-25T07:47:18.661Z,8.96
2018-09-25T07:49:52.560Z,9.14
2018-09-25T07:52:26.361Z,9.28
2018-09-25T07:55:00.189Z,9.35
2018-09-25T07:57:34.114Z,9.52
2018-09-25T08:00:08.054Z,9.63
2018-09-25T08:02:41.976Z,9.74
2018-09-25T08:05:15.813Z,9.82
2018-09-25T08:07:49.673Z,9.83
2018-09-25T08:10:23.523Z,9.98
2018-09-25T08:12:57.484Z,10.12
2018-09-25T08:15:31.541Z,10.28
2018-09-25T08:18:05.403Z,10.35
2018-09-25T08:20:39.318Z,10.41
2018-09-25T08:23:13.261Z,10.53
2018-09-25T08:25:47.060Z,10.71
2018-09-25T08:28:21.097Z,10.84
2018-09-25T08:30:55.017Z,10.98
2018-09-25T08:33:28.933Z,11.09
2018-09-25T08:36:02.737Z,11.22
2018-09-25T08:38:36.788Z,11.33
2018-09-25T08:41:10.663Z,11.44
2018-09-25T08:43:44.548Z,11.48
2018-09-25T08:46:18.426Z,11.54
2018-09-25T08:48:52.263Z,11.47
2018-09-25T08:51:26.177Z,11.61
2018-09-25T08:54:00.064Z,11.73
2018-09-25T08:56:34.076Z,11.64
2018-09-25T08:59:08.035Z,11.80
2018-09-25T09:01:41.974Z,11.87
2018-09-25T09:04:15.821Z,11.91
2018-09-25T09:06:49.833Z,11.94
2018-09-25T09:09:23.801Z,12.03
2018-09-25T09:11:57.757Z,12.29
2018-09-25T09:14:31.633Z,12.24
2018-09-25T09:17:05.403Z,12.22
2018-09-25T09:19:39.419Z,12.40
2018-09-25T09:22:13.437Z,12.36
2018-09-25T09:24:47.336Z,12.43
2018-09-25T09:27:21.177Z,12.50
2018-09-25T09:29:54.983Z,12.55
2018-09-25T09:32:28.933Z,12.67
2018-09-25T09:35:02.876Z,12.83
2018-09-25T09:37:36.989Z,13.04
2018-09-25T09:40:11.310Z,13.18
2018-09-25T09:42:45.326Z,12.94
2018-09-25T09:45:19.221Z,13.04
2018-09-25T09:47:53.213Z,13.02
2018-09-25T09:50:27.169Z,13.22
2018-09-25T09:53:01.152Z,13.41
2018-09-25T09:55:35.129Z,13.45
2018-09-25T09:58:08.964Z,13.26
2018-09-25T10:00:42.770Z,13.55
2018-09-25T10:03:16.513Z,13.51
2018-09-25T10:05:50.489Z,13.26
2018-09-25T10:08:24.430Z,13.24
2018-09-25T10:10:58.319Z,13.38
2018-09-25T10:13:32.266Z,13.24
2018-09-25T10:16:06.185Z,13.26
2018-09-25T10:18:40.264Z,13.54
2018-09-25T10:21:14.113Z,13.60
2018-09-25T10:23:48.161Z,13.53
2018-09-25T10:26:22.152Z,13.69
2018-09-25T10:28:56.069Z,13.72
2018-09-25T10:31:30.010Z,13.73
2018-09-25T10:34:04.079Z,13.91
2018-09-25T10:36:38.001Z,13.96
2018-09-25T10:39:14.167Z,13.80
2018-09-25T10:41:48.081Z,13.72
2018-09-25T10:44:22.000Z,14.02
2018-09-25T10:46:55.968Z,14.27
2018-09-25T10:49:29.834Z,14.15
2018-09-25T10:52:03.757Z,14.17
2018-09-25T10:54:37.673Z,14.56
2018-09-25T10:57:11.383Z,14.28
2018-09-25T10:59:45.360Z,13.80
2018-09-25T11:02:19.202Z,14.08
2018-09-25T11:04:53.201Z,14.30
2018-09-25T11:07:27.218Z,14.57
2018-09-25T11:10:01.155Z,14.86
2018-09-25T11:12:35.004Z,14.95
2018-09-25T11:15:08.848Z,14.46
2018-09-25T11:17:42.786Z,14.20
2018-09-25T11:20:16.593Z,14.34
2018-09-25T11:22:50.546Z,14.41
2018-09-25T11:25:24.394Z,14.47
2018-09-25T11:27:58.177Z,14.66
2018-09-25T11:30:32.146Z,14.72
2018-09-25T11:33:06.165Z,15.10
2018-09-25T11:35:39.978Z,15.11
2018-09-25T11:38:13.777Z,15.04
2018-09-25T11:40:47.671Z,14.94
2018-09-25T11:43:21.552Z,14.94
2018-09-25T11:45:55.356Z,14.47
2018-09-25T11:48:29.166Z,13.79
2018-09-25T11:51:03.228Z,13.45
2018-09-25T11:53:37.001Z,13.95
2018-09-25T11:56:10.851Z,14.58
2018-09-25T11:58:44.666Z,15.18
2018-09-25T12:01:18.502Z,15.50
2018-09-25T12:03:52.452Z,14.95
2018-09-25T12:06:26.439Z,14.86
2018-09-25T12:09:00.476Z,14.81
2018-09-25T12:11:34.422Z,14.15
2018-09-25T12:14:08.294Z,13.68
2018-09-25T12:16:42.339Z,13.46
2018-09-25T12:19:16.155Z,13.48
2018-09-25T12:21:50.190Z,13.53
2018-09-25T12:24:24.032Z,14.13
2018-09-25T12:26:57.924Z,14.79
2018-09-25T12:29:31.697Z,15.09
2018-09-25T12:32:05.514Z,15.17
2018-09-25T12:34:39.462Z,15.18
2018-09-25T12:37:13.400Z,15.16
2018-09-25T12:39:47.197Z,15.36
2018-09-25T12:42:20.887Z,14.71
2018-09-25T12:44:54.830Z,14.54
2018-09-25T12:47:28.673Z,15.20
2018-09-25T12:50:02.596Z,15.57
2018-09-25T12:52:36.545Z,15.17
2018-09-25T12:55:10.556Z,14.78
2018-09-25T12:57:44.420Z,15.17
2018-09-25T13:00:18.384Z,14.87
2018-09-25T13:02:52.395Z,14.20
2018-09-25T13:05:26.321Z,13.80
2018-09-25T13:08:00.361Z,14.08
2018-09-25T13:10:34.159Z,14.61
2018-09-25T13:13:08.148Z,15.09
2018-09-25T13:15:42.002Z,15.41
2018-09-25T13:18:15.933Z,15.36
2018-09-25T13:20:49.924Z,14.87
2018-09-25T13:23:23.869Z,14.27
2018-09-25T13:25:57.862Z,13.89
2018-09-25T13:28:31.825Z,13.78
2018-09-25T13:31:05.621Z,14.31
2018-09-25T13:33:39.410Z,14.81
2018-09-25T13:36:13.454Z,15.16
2018-09-25T13:38:47.426Z,15.37
2018-09-25T13:41:21.265Z,14.94
2018-09-25T13:43:55.278Z,15.01
2018-09-25T13:46:29.379Z,15.11
2018-09-25T13:49:03.389Z,15.33
2018-09-25T13:51:37.164Z,15.58
2018-09-25T13:54:11.204Z,15.54
2018-09-25T13:56:45.244Z,15.32
2018-09-25T13:59:19.189Z,15.30
2018-09-25T14:01:53.132Z,15.43
2018-09-25T14:04:27.051Z,15.40
2018-09-25T14:07:01.020Z,14.98
2018-09-25T14:09:34.938Z,14.58
2018-09-25T14:12:08.884Z,14.27
2018-09-25T14:14:42.789Z,14.09
2018-09-25T14:17:16.752Z,14.24
2018-09-25T14:19:50.717Z,14.53
2018-09-25T14:22:24.574Z,14.81
2018-09-25T14:24:58.521Z,15.04
2018-09-25T14:27:32.436Z,15.22
2018-09-25T14:30:06.105Z,15.38
2018-09-25T14:32:40.144Z,15.46
2018-09-25T14:35:14.093Z,15.25
2018-09-25T14:37:48.012Z,15.29
2018-09-25T14:40:21.994Z,15.35
2018-09-25T14:42:55.994Z,15.49
2018-09-25T14:45:29.881Z,15.70
2018-09-25T14:48:03.711Z,15.73
2018-09-25T14:50:37.599Z,15.57
2018-09-25T14:53:11.532Z,15.29
2018-09-25T14:55:45.535Z,15.19
2018-09-25T14:58:19.465Z,15.09
2018-09-25T15:00:53.379Z,15.00
2018-09-25T15:03:27.111Z,14.68
2018-09-25T15:06:00.784Z,14.43
2018-09-25T15:08:34.767Z,14.11
2018-09-25T15:11:08.537Z,13.87
2018-09-25T15:13:42.606Z,13.70
2018-09-25T15:16:16.593Z,13.62
2018-09-25T15:18:50.491Z,13.71
2018-09-25T15:21:24.506Z,14.00
2018-09-25T15:23:58.269Z,14.30
2018-09-25T15:26:32.267Z,14.53
2018-09-25T15:29:06.252Z,14.64
2018-09-25T15:31:40.257Z,14.46
2018-09-25T15:34:14.246Z,14.25
2018-09-25T15:36:48.055Z,14.16
2018-09-25T15:39:22.029Z,14.12
2018-09-25T15:41:55.902Z,13.91
2018-09-25T15:44:29.869Z,13.67
2018-09-25T15:47:03.861Z,13.43
2018-09-25T15:49:37.845Z,13.23
2018-09-25T15:52:11.318Z,13.02
2018-09-25T15:54:45.288Z,12.86
2018-09-25T15:57:19.255Z,12.69
2018-09-25T15:59:53.197Z,12.59
2018-09-25T16:02:27.090Z,12.51
2018-09-25T16:05:01.030Z,12.50
2018-09-25T16:07:35.025Z,12.52
2018-09-25T16:10:08.793Z,12.46
2018-09-25T16:12:42.751Z,12.39
2018-09-25T16:15:16.554Z,12.33
2018-09-25T16:17:57.122Z,12.30
2018-09-25T16:20:30.863Z,12.27
2018-09-25T16:23:04.769Z,12.23
2018-09-25T16:32:47.529Z,11.97
2018-09-25T16:35:21.604Z,11.90
2018-09-25T16:37:55.497Z,11.78
2018-09-25T16:40:29.304Z,11.67
2018-09-25T16:43:03.223Z,11.55
2018-09-25T16:45:37.132Z,11.44
2018-09-25T16:48:11.010Z,11.29
2018-09-25T16:50:44.895Z,11.14
2018-09-25T16:53:18.722Z,10.94
2018-09-25T16:55:52.414Z,10.71
2018-09-25T16:58:26.384Z,10.52
2018-09-25T17:01:00.297Z,10.35
2018-09-25T17:03:34.211Z,10.20
2018-09-25T17:06:08.309Z,10.06
2018-09-25T17:08:41.978Z,9.94
2018-09-25T17:11:15.970Z,9.83
2018-09-25T17:13:49.803Z,9.70
2018-09-25T17:16:23.798Z,9.58
2018-09-25T17:18:57.523Z,9.42
2018-09-25T17:21:31.387Z,9.27
2018-09-25T17:24:05.300Z,9.14
2018-09-25T17:26:39.172Z,9.04
2018-09-25T17:29:13.241Z,8.93
2018-09-25T17:31:47.000Z,8.87
2018-09-25T17:34:20.855Z,8.75
2018-09-25T17:36:54.684Z,8.64
2018-09-25T17:39:28.505Z,8.48
2018-09-25T17:42:02.410Z,8.36
2018-09-25T17:44:36.219Z,8.31
2018-09-25T17:47:10.236Z,8.26
2018-09-25T17:49:44.198Z,8.20
2018-09-25T17:52:18.317Z,8.12
2018-09-25T17:54:52.293Z,8.04
2018-09-25T17:57:26.253Z,7.97
2018-09-25T18:00:00.124Z,7.93
2018-09-25T18:02:33.964Z,7.89
2018-09-25T18:05:07.739Z,7.87
2018-09-25T18:07:41.972Z,7.83
2018-09-25T18:10:16.075Z,7.78
2018-09-25T18:12:50.057Z,7.74
2018-09-25T18:15:23.808Z,7.72
2018-09-25T18:17:57.738Z,7.60
2018-09-25T18:20:31.745Z,7.48
2018-09-25T18:23:05.605Z,7.37
2018-09-25T18:25:39.404Z,7.34
2018-09-25T18:28:13.419Z,7.35
2018-09-25T18:30:47.310Z,7.29
2018-09-25T18:33:21.373Z,7.28
2018-09-25T18:35:55.179Z,7.24
2018-09-25T18:38:29.227Z,7.19
2018-09-25T18:41:03.183Z,7.14
2018-09-25T18:43:36.917Z,7.11
2018-09-25T18:46:10.838Z,7.09
2018-09-25T18:48:44.828Z,7.09
2018-09-25T18:51:18.646Z,7.09
2018-09-25T18:53:52.648Z,7.08
2018-09-25T18:56:26.533Z,7.06
2018-09-25T18:59:00.483Z,7.03
2018-09-25T19:01:34.472Z,6.97
2018-09-25T19:04:08.510Z,6.93
2018-09-25T19:06:42.528Z,6.86
2018-09-25T19:09:16.459Z,6.78
2018-09-25T19:11:50.318Z,6.67
2018-09-25T19:14:24.202Z,6.58
2018-09-25T19:16:58.085Z,6.53
2018-09-25T19:19:32.164Z,6.47
2018-09-25T19:22:06.167Z,6.43
2018-09-25T19:24:40.033Z,6.43
2018-09-25T19:27:13.899Z,6.45
2018-09-25T19:29:47.737Z,6.43
2018-09-25T19:32:21.826Z,6.36
2018-09-25T19:34:55.765Z,6.33
2018-09-25T19:37:29.670Z,6.30
2018-09-25T19:40:03.619Z,6.24
2018-09-25T19:42:37.468Z,6.21
2018-09-25T19:45:11.464Z,6.15
2018-09-25T19:47:45.133Z,6.05
2018-09-25T19:50:19.197Z,6.00
2018-09-25T19:52:53.043Z,5.97
2018-09-25T19:55:27.042Z,5.99
2018-09-25T19:58:00.968Z,5.98
2018-09-25T20:00:34.896Z,5.97
2018-09-25T20:03:08.889Z,5.94
2018-09-25T20:05:42.929Z,5.91
2018-09-25T20:08:16.729Z,5.90
2018-09-25T20:10:50.617Z,5.90
2018-09-25T20:13:24.749Z,5.87
2018-09-25T20:16:01.595Z,5.77
2018-09-25T20:18:35.305Z,5.76
2018-09-25T20:21:09.179Z,5.74
2018-09-25T20:23:42.823Z,5.78
2018-09-25T20:26:16.530Z,5.82
2018-09-25T20:28:50.287Z,5.90
2018-09-25T20:31:24.058Z,5.94
2018-09-25T20:33:57.707Z,5.96
2018-09-25T20:36:31.311Z,5.83
2018-09-25T20:39:05.048Z,5.81
2018-09-25T20:41:38.801Z,5.85
2018-09-25T20:44:12.713Z,5.76
2018-09-25T20:46:46.458Z,5.72
2018-09-25T20:49:20.268Z,5.74
2018-09-25T20:51:54.092Z,5.86
2018-09-25T20:54:27.804Z,5.87
2018-09-25T20:57:01.619Z,5.86
2018-09-25T20:59:35.342Z,5.93
2018-09-25T21:02:09.116Z,5.92
2018-09-25T21:04:42.991Z,5.92
2018-09-25T21:07:16.742Z,5.97
2018-09-25T21:09:50.712Z,5.94
2018-09-25T21:12:24.428Z,5.94
2018-09-25T21:14:58.093Z,5.91
2018-09-25T21:17:32.102Z,5.93
2018-09-25T21:20:05.850Z,5.88
2018-09-25T21:22:39.642Z,5.85
2018-09-25T21:25:13.359Z,5.80
2018-09-25T21:27:47.170Z,5.82
2018-09-25T21:30:21.029Z,5.76
2018-09-25T21:32:55.003Z,5.60
2018-09-25T21:35:28.785Z,5.40
2018-09-25T21:38:02.524Z,5.35
2018-09-25T21:40:36.364Z,5.34
2018-09-25T21:43:10.121Z,5.32
2018-09-25T21:45:43.729Z,5.32
2018-09-25T21:48:17.408Z,5.34
2018-09-25T21:50:51.176Z,5.36
2018-09-25T21:53:25.048Z,5.31
2018-09-25T21:55:58.795Z,5.25
2018-09-25T21:58:32.593Z,5.25
2018-09-25T22:01:06.355Z,5.27
2018-09-25T22:03:40.132Z,5.31
2018-09-25T22:06:13.964Z,5.36
2018-09-25T22:08:47.727Z,5.38
2018-09-25T22:11:21.523Z,5.40
2018-09-25T22:13:55.291Z,5.41
2018-09-25T22:16:29.112Z,5.35
2018-09-25T22:19:02.872Z,5.28
2018-09-25T22:21:36.702Z,5.28
2018-09-25T22:24:10.441Z,5.31
2018-09-25T22:26:44.228Z,5.32
2018-09-25T22:29:18.074Z,5.29
2018-09-25T22:31:51.792Z,5.23
2018-09-25T22:34:25.529Z,5.06
2018-09-25T22:36:59.234Z,4.91
2018-09-25T22:39:33.042Z,4.82
2018-09-25T22:42:06.852Z,4.82
2018-09-25T22:44:40.671Z,4.78
2018-09-25T22:47:14.504Z,4.82
2018-09-25T22:49:48.088Z,4.87
2018-09-25T22:52:21.881Z,4.91
2018-09-25T22:54:55.739Z,4.89
2018-09-25T22:57:29.450Z,4.89
2018-09-25T23:00:03.107Z,4.81
2018-09-25T23:02:36.876Z,4.76
2018-09-25T23:05:10.583Z,4.74
2018-09-25T23:07:44.381Z,4.73
2018-09-25T23:10:18.248Z,4.75
2018-09-25T23:12:52.083Z,4.78
2018-09-25T23:15:25.854Z,4.79
2018-09-25T23:17:59.604Z,4.82
2018-09-25T23:20:33.515Z,4.84
2018-09-25T23:23:07.367Z,4.83
2018-09-25T23:25:41.280Z,4.81
2018-09-25T23:28:15.026Z,4.87
2018-09-25T23:30:48.721Z,4.90
2018-09-25T23:33:22.537Z,4.86
2018-09-25T23:35:56.290Z,4.80
2018-09-25T23:38:30.095Z,4.76
2018-09-25T23:41:03.979Z,4.72
2018-09-25T23:43:37.828Z,4.71
2018-09-25T23:46:44.861Z,4.72
2018-09-25T23:49:18.840Z,4.70
2018-09-25T23:51:59.719Z,4.63
2018-09-25T23:54:33.217Z,4.58
2018-09-25T23:57:12.283Z,4.53
2018-09-25T23:59:46.739Z,4.46
